sensor_id;sensor_type;location;lat;lon;timestamp;P1;durP1;ratioP1;P2;durP2;ratioP2
18172;SDS011;9211;48.818;9.312;2024-01-30T00:00:27;18.80;;;10.60;;
18172;SDS011;9211;48.818;9.312;2024-01-30T00:02:54;21.95;;;10.82;;
18172;SDS011;9211;48.818;9.312;2024-01-30T00:05:21;23.95;;;11.40;;
18172;SDS011;9211;48.818;9.312;2024-01-30T00:07:48;19.75;;;11.38;;
18172;SDS011;9211;48.818;9.312;2024-01-30T00:10:18;21.48;;;11.20;;
18172;SDS011;9211;48.818;9.312;2024-01-30T00:12:45;18.95;;;10.77;;
18172;SDS011;9211;48.818;9.312;2024-01-30T00:15:12;21.50;;;11.13;;
18172;SDS011;9211;48.818;9.312;2024-01-30T00:17:40;20.48;;;10.65;;
18172;SDS011;9211;48.818;9.312;2024-01-30T00:20:07;21.65;;;10.98;;
18172;SDS011;9211;48.818;9.312;2024-01-30T00:22:34;21.35;;;11.23;;
18172;SDS011;9211;48.818;9.312;2024-01-30T00:25:02;19.98;;;11.27;;
18172;SDS011;9211;48.818;9.312;2024-01-30T00:27:31;18.15;;;11.00;;
18172;SDS011;9211;48.818;9.312;2024-01-30T00:29:57;21.83;;;11.10;;
18172;SDS011;9211;48.818;9.312;2024-01-30T00:32:24;21.90;;;11.03;;
18172;SDS011;9211;48.818;9.312;2024-01-30T00:34:51;22.70;;;11.03;;
18172;SDS011;9211;48.818;9.312;2024-01-30T00:37:18;21.73;;;11.30;;
18172;SDS011;9211;48.818;9.312;2024-01-30T00:39:45;21.90;;;11.00;;
18172;SDS011;9211;48.818;9.312;2024-01-30T00:42:12;19.58;;;11.13;;
18172;SDS011;9211;48.818;9.312;2024-01-30T00:44:40;22.30;;;11.32;;
18172;SDS011;9211;48.818;9.312;2024-01-30T00:47:07;20.60;;;11.15;;
18172;SDS011;9211;48.818;9.312;2024-01-30T00:49:34;19.83;;;11.03;;
18172;SDS011;9211;48.818;9.312;2024-01-30T00:52:01;21.97;;;10.87;;
18172;SDS011;9211;48.818;9.312;2024-01-30T00:54:28;19.65;;;10.55;;
18172;SDS011;9211;48.818;9.312;2024-01-30T00:56:55;20.75;;;10.48;;
18172;SDS011;9211;48.818;9.312;2024-01-30T00:59:22;20.85;;;10.98;;
18172;SDS011;9211;48.818;9.312;2024-01-30T01:01:50;19.55;;;10.80;;
18172;SDS011;9211;48.818;9.312;2024-01-30T01:04:17;19.23;;;10.65;;
18172;SDS011;9211;48.818;9.312;2024-01-30T01:06:46;23.08;;;11.13;;
18172;SDS011;9211;48.818;9.312;2024-01-30T01:09:13;19.33;;;11.00;;
18172;SDS011;9211;48.818;9.312;2024-01-30T01:11:40;21.50;;;11.00;;
18172;SDS011;9211;48.818;9.312;2024-01-30T01:14:07;21.08;;;10.98;;
18172;SDS011;9211;48.818;9.312;2024-01-30T01:16:34;18.73;;;10.98;;
18172;SDS011;9211;48.818;9.312;2024-01-30T01:19:01;21.05;;;10.82;;
18172;SDS011;9211;48.818;9.312;2024-01-30T01:21:28;20.92;;;10.45;;
18172;SDS011;9211;48.818;9.312;2024-01-30T01:23:55;21.25;;;11.18;;
18172;SDS011;9211;48.818;9.312;2024-01-30T01:26:22;19.17;;;10.38;;
18172;SDS011;9211;48.818;9.312;2024-01-30T01:28:49;21.88;;;10.45;;
18172;SDS011;9211;48.818;9.312;2024-01-30T01:31:16;21.40;;;11.05;;
18172;SDS011;9211;48.818;9.312;2024-01-30T01:33:43;20.15;;;10.45;;
18172;SDS011;9211;48.818;9.312;2024-01-30T01:36:11;19.58;;;10.25;;
18172;SDS011;9211;48.818;9.312;2024-01-30T01:38:40;17.40;;;10.35;;
18172;SDS011;9211;48.818;9.312;2024-01-30T01:41:07;17.45;;;9.82;;
18172;SDS011;9211;48.818;9.312;2024-01-30T01:43:33;19.20;;;10.27;;
18172;SDS011;9211;48.818;9.312;2024-01-30T01:46:00;19.88;;;10.70;;
18172;SDS011;9211;48.818;9.312;2024-01-30T01:48:27;19.60;;;10.38;;
18172;SDS011;9211;48.818;9.312;2024-01-30T01:50:55;20.33;;;10.47;;
18172;SDS011;9211;48.818;9.312;2024-01-30T01:53:24;19.48;;;9.82;;
18172;SDS011;9211;48.818;9.312;2024-01-30T01:55:51;18.95;;;9.90;;
18172;SDS011;9211;48.818;9.312;2024-01-30T01:58:19;18.70;;;10.00;;
18172;SDS011;9211;48.818;9.312;2024-01-30T02:00:48;18.83;;;9.90;;
18172;SDS011;9211;48.818;9.312;2024-01-30T02:03:16;19.35;;;9.88;;
18172;SDS011;9211;48.818;9.312;2024-01-30T02:05:46;22.63;;;10.32;;
18172;SDS011;9211;48.818;9.312;2024-01-30T02:08:13;17.00;;;10.07;;
18172;SDS011;9211;48.818;9.312;2024-01-30T02:10:41;17.92;;;10.13;;
18172;SDS011;9211;48.818;9.312;2024-01-30T02:13:08;17.55;;;10.10;;
18172;SDS011;9211;48.818;9.312;2024-01-30T02:15:35;18.13;;;10.25;;
18172;SDS011;9211;48.818;9.312;2024-01-30T02:18:02;18.45;;;10.43;;
18172;SDS011;9211;48.818;9.312;2024-01-30T02:20:29;20.27;;;10.20;;
18172;SDS011;9211;48.818;9.312;2024-01-30T02:22:59;18.60;;;9.40;;
18172;SDS011;9211;48.818;9.312;2024-01-30T02:25:33;17.27;;;9.73;;
18172;SDS011;9211;48.818;9.312;2024-01-30T02:28:03;15.15;;;9.55;;
18172;SDS011;9211;48.818;9.312;2024-01-30T02:30:30;17.42;;;9.88;;
18172;SDS011;9211;48.818;9.312;2024-01-30T02:32:57;16.98;;;9.57;;
18172;SDS011;9211;48.818;9.312;2024-01-30T02:35:24;18.52;;;9.55;;
18172;SDS011;9211;48.818;9.312;2024-01-30T02:37:51;16.52;;;9.52;;
18172;SDS011;9211;48.818;9.312;2024-01-30T02:40:19;17.40;;;9.67;;
18172;SDS011;9211;48.818;9.312;2024-01-30T02:42:46;16.58;;;9.73;;
18172;SDS011;9211;48.818;9.312;2024-01-30T02:45:13;17.77;;;9.00;;
18172;SDS011;9211;48.818;9.312;2024-01-30T02:47:41;16.42;;;9.30;;
18172;SDS011;9211;48.818;9.312;2024-01-30T02:50:08;17.35;;;9.60;;
18172;SDS011;9211;48.818;9.312;2024-01-30T02:52:35;16.00;;;9.40;;
18172;SDS011;9211;48.818;9.312;2024-01-30T02:55:02;16.73;;;9.50;;
18172;SDS011;9211;48.818;9.312;2024-01-30T02:57:31;18.35;;;9.52;;
18172;SDS011;9211;48.818;9.312;2024-01-30T02:59:58;17.52;;;8.88;;
18172;SDS011;9211;48.818;9.312;2024-01-30T03:02:25;18.45;;;9.32;;
18172;SDS011;9211;48.818;9.312;2024-01-30T03:04:52;17.37;;;9.43;;
18172;SDS011;9211;48.818;9.312;2024-01-30T03:07:18;15.10;;;9.27;;
18172;SDS011;9211;48.818;9.312;2024-01-30T03:09:45;16.77;;;8.77;;
18172;SDS011;9211;48.818;9.312;2024-01-30T03:12:15;15.82;;;8.82;;
18172;SDS011;9211;48.818;9.312;2024-01-30T03:14:43;19.13;;;8.83;;
18172;SDS011;9211;48.818;9.312;2024-01-30T03:17:10;17.88;;;9.20;;
18172;SDS011;9211;48.818;9.312;2024-01-30T03:19:37;14.65;;;8.73;;
18172;SDS011;9211;48.818;9.312;2024-01-30T03:22:04;16.80;;;8.70;;
18172;SDS011;9211;48.818;9.312;2024-01-30T03:24:31;15.48;;;9.00;;
18172;SDS011;9211;48.818;9.312;2024-01-30T03:26:57;16.00;;;8.90;;
18172;SDS011;9211;48.818;9.312;2024-01-30T03:29:24;15.35;;;8.63;;
18172;SDS011;9211;48.818;9.312;2024-01-30T03:31:53;16.05;;;8.88;;
18172;SDS011;9211;48.818;9.312;2024-01-30T03:34:19;15.90;;;8.73;;
18172;SDS011;9211;48.818;9.312;2024-01-30T03:36:46;16.48;;;9.27;;
18172;SDS011;9211;48.818;9.312;2024-01-30T03:39:13;19.83;;;9.27;;
18172;SDS011;9211;48.818;9.312;2024-01-30T03:41:41;15.43;;;8.82;;
18172;SDS011;9211;48.818;9.312;2024-01-30T03:44:09;18.38;;;9.15;;
18172;SDS011;9211;48.818;9.312;2024-01-30T03:46:36;15.52;;;8.90;;
18172;SDS011;9211;48.818;9.312;2024-01-30T03:49:04;16.95;;;9.13;;
18172;SDS011;9211;48.818;9.312;2024-01-30T03:51:31;17.10;;;8.97;;
18172;SDS011;9211;48.818;9.312;2024-01-30T03:53:58;15.57;;;9.13;;
18172;SDS011;9211;48.818;9.312;2024-01-30T03:56:25;17.23;;;8.90;;
18172;SDS011;9211;48.818;9.312;2024-01-30T03:58:52;16.15;;;8.57;;
18172;SDS011;9211;48.818;9.312;2024-01-30T04:01:19;15.40;;;9.10;;
18172;SDS011;9211;48.818;9.312;2024-01-30T04:03:46;15.40;;;8.80;;
18172;SDS011;9211;48.818;9.312;2024-01-30T04:06:14;17.15;;;8.80;;
18172;SDS011;9211;48.818;9.312;2024-01-30T04:08:41;16.15;;;9.30;;
18172;SDS011;9211;48.818;9.312;2024-01-30T04:11:08;18.23;;;9.35;;
18172;SDS011;9211;48.818;9.312;2024-01-30T04:13:35;14.80;;;8.77;;
18172;SDS011;9211;48.818;9.312;2024-01-30T04:16:02;16.30;;;9.00;;
18172;SDS011;9211;48.818;9.312;2024-01-30T04:18:29;16.15;;;8.82;;
18172;SDS011;9211;48.818;9.312;2024-01-30T04:20:57;14.52;;;8.80;;
18172;SDS011;9211;48.818;9.312;2024-01-30T04:23:25;15.07;;;8.60;;
18172;SDS011;9211;48.818;9.312;2024-01-30T04:25:52;14.10;;;8.43;;
18172;SDS011;9211;48.818;9.312;2024-01-30T04:28:19;15.47;;;9.20;;
18172;SDS011;9211;48.818;9.312;2024-01-30T04:30:46;14.80;;;8.85;;
18172;SDS011;9211;48.818;9.312;2024-01-30T04:33:13;16.48;;;9.27;;
18172;SDS011;9211;48.818;9.312;2024-01-30T04:35:39;16.95;;;8.88;;
18172;SDS011;9211;48.818;9.312;2024-01-30T04:38:06;14.25;;;8.38;;
18172;SDS011;9211;48.818;9.312;2024-01-30T04:40:35;16.20;;;8.50;;
18172;SDS011;9211;48.818;9.312;2024-01-30T04:43:01;14.85;;;8.70;;
18172;SDS011;9211;48.818;9.312;2024-01-30T04:45:28;15.20;;;8.57;;
18172;SDS011;9211;48.818;9.312;2024-01-30T04:47:55;15.18;;;8.63;;
18172;SDS011;9211;48.818;9.312;2024-01-30T04:50:22;14.93;;;8.30;;
18172;SDS011;9211;48.818;9.312;2024-01-30T04:52:49;15.52;;;8.50;;
18172;SDS011;9211;48.818;9.312;2024-01-30T04:55:16;17.15;;;8.82;;
18172;SDS011;9211;48.818;9.312;2024-01-30T04:57:44;13.60;;;8.50;;
18172;SDS011;9211;48.818;9.312;2024-01-30T05:00:11;14.63;;;8.45;;
18172;SDS011;9211;48.818;9.312;2024-01-30T05:02:39;16.13;;;8.50;;
18172;SDS011;9211;48.818;9.312;2024-01-30T05:05:06;18.20;;;8.77;;
18172;SDS011;9211;48.818;9.312;2024-01-30T05:07:33;14.32;;;8.52;;
18172;SDS011;9211;48.818;9.312;2024-01-30T05:10:00;15.27;;;8.30;;
18172;SDS011;9211;48.818;9.312;2024-01-30T05:12:27;14.25;;;8.55;;
18172;SDS011;9211;48.818;9.312;2024-01-30T05:14:55;16.37;;;8.43;;
18172;SDS011;9211;48.818;9.312;2024-01-30T05:17:22;16.23;;;8.35;;
18172;SDS011;9211;48.818;9.312;2024-01-30T05:19:49;15.30;;;8.38;;
18172;SDS011;9211;48.818;9.312;2024-01-30T05:22:16;14.30;;;8.25;;
18172;SDS011;9211;48.818;9.312;2024-01-30T05:24:43;17.95;;;8.40;;
18172;SDS011;9211;48.818;9.312;2024-01-30T05:27:10;14.65;;;8.10;;
18172;SDS011;9211;48.818;9.312;2024-01-30T05:29:38;14.93;;;8.27;;
18172;SDS011;9211;48.818;9.312;2024-01-30T05:32:07;13.73;;;8.45;;
18172;SDS011;9211;48.818;9.312;2024-01-30T05:34:35;15.18;;;8.60;;
18172;SDS011;9211;48.818;9.312;2024-01-30T05:37:02;14.95;;;8.20;;
18172;SDS011;9211;48.818;9.312;2024-01-30T05:39:29;15.00;;;8.60;;
18172;SDS011;9211;48.818;9.312;2024-01-30T05:41:58;15.80;;;8.82;;
18172;SDS011;9211;48.818;9.312;2024-01-30T05:44:25;17.20;;;8.82;;
18172;SDS011;9211;48.818;9.312;2024-01-30T05:46:52;14.63;;;8.63;;
18172;SDS011;9211;48.818;9.312;2024-01-30T05:49:20;16.88;;;8.88;;
18172;SDS011;9211;48.818;9.312;2024-01-30T05:51:47;14.85;;;8.07;;
18172;SDS011;9211;48.818;9.312;2024-01-30T05:54:14;18.42;;;8.60;;
18172;SDS011;9211;48.818;9.312;2024-01-30T05:56:41;15.73;;;9.07;;
18172;SDS011;9211;48.818;9.312;2024-01-30T05:59:07;16.05;;;9.20;;
18172;SDS011;9211;48.818;9.312;2024-01-30T06:01:34;15.73;;;9.38;;
18172;SDS011;9211;48.818;9.312;2024-01-30T06:04:01;15.93;;;9.23;;
18172;SDS011;9211;48.818;9.312;2024-01-30T06:06:30;15.80;;;8.93;;
18172;SDS011;9211;48.818;9.312;2024-01-30T06:08:56;17.45;;;9.20;;
18172;SDS011;9211;48.818;9.312;2024-01-30T06:11:23;16.55;;;9.35;;
18172;SDS011;9211;48.818;9.312;2024-01-30T06:13:50;16.88;;;9.50;;
18172;SDS011;9211;48.818;9.312;2024-01-30T06:16:17;17.38;;;9.30;;
18172;SDS011;9211;48.818;9.312;2024-01-30T06:18:46;15.40;;;8.98;;
18172;SDS011;9211;48.818;9.312;2024-01-30T06:21:13;15.07;;;9.00;;
18172;SDS011;9211;48.818;9.312;2024-01-30T06:23:41;16.30;;;8.90;;
18172;SDS011;9211;48.818;9.312;2024-01-30T06:26:08;16.23;;;9.27;;
18172;SDS011;9211;48.818;9.312;2024-01-30T06:28:35;19.42;;;10.95;;
18172;SDS011;9211;48.818;9.312;2024-01-30T06:31:02;19.45;;;11.52;;
18172;SDS011;9211;48.818;9.312;2024-01-30T06:33:29;18.25;;;10.40;;
18172;SDS011;9211;48.818;9.312;2024-01-30T06:35:56;20.13;;;10.77;;
18172;SDS011;9211;48.818;9.312;2024-01-30T06:38:23;18.63;;;10.60;;
18172;SDS011;9211;48.818;9.312;2024-01-30T06:40:51;18.05;;;11.00;;
18172;SDS011;9211;48.818;9.312;2024-01-30T06:43:18;19.90;;;10.93;;
18172;SDS011;9211;48.818;9.312;2024-01-30T06:45:45;21.80;;;11.17;;
18172;SDS011;9211;48.818;9.312;2024-01-30T06:48:12;20.63;;;10.90;;
18172;SDS011;9211;48.818;9.312;2024-01-30T06:50:39;20.83;;;11.35;;
18172;SDS011;9211;48.818;9.312;2024-01-30T06:53:06;21.90;;;11.45;;
18172;SDS011;9211;48.818;9.312;2024-01-30T06:55:33;22.27;;;11.55;;
18172;SDS011;9211;48.818;9.312;2024-01-30T06:58:01;19.88;;;11.18;;
18172;SDS011;9211;48.818;9.312;2024-01-30T07:00:28;22.58;;;10.88;;
18172;SDS011;9211;48.818;9.312;2024-01-30T07:02:55;20.85;;;11.45;;
18172;SDS011;9211;48.818;9.312;2024-01-30T07:05:22;20.38;;;11.00;;
18172;SDS011;9211;48.818;9.312;2024-01-30T07:07:49;20.02;;;11.27;;
18172;SDS011;9211;48.818;9.312;2024-01-30T07:10:16;19.63;;;10.70;;
18172;SDS011;9211;48.818;9.312;2024-01-30T07:12:43;18.50;;;10.77;;
18172;SDS011;9211;48.818;9.312;2024-01-30T07:15:11;20.17;;;10.45;;
18172;SDS011;9211;48.818;9.312;2024-01-30T07:17:41;22.40;;;10.82;;
18172;SDS011;9211;48.818;9.312;2024-01-30T07:20:08;19.87;;;10.30;;
18172;SDS011;9211;48.818;9.312;2024-01-30T07:22:36;19.13;;;10.30;;
18172;SDS011;9211;48.818;9.312;2024-01-30T07:25:03;17.48;;;10.10;;
18172;SDS011;9211;48.818;9.312;2024-01-30T07:27:30;18.52;;;10.23;;
18172;SDS011;9211;48.818;9.312;2024-01-30T07:29:57;18.70;;;10.13;;
18172;SDS011;9211;48.818;9.312;2024-01-30T07:32:26;20.40;;;10.75;;
18172;SDS011;9211;48.818;9.312;2024-01-30T07:34:52;17.73;;;9.82;;
18172;SDS011;9211;48.818;9.312;2024-01-30T07:37:19;20.85;;;10.05;;
18172;SDS011;9211;48.818;9.312;2024-01-30T07:39:46;17.40;;;10.00;;
18172;SDS011;9211;48.818;9.312;2024-01-30T07:42:13;17.50;;;10.25;;
18172;SDS011;9211;48.818;9.312;2024-01-30T07:44:40;18.67;;;9.90;;
18172;SDS011;9211;48.818;9.312;2024-01-30T07:47:07;18.92;;;10.15;;
18172;SDS011;9211;48.818;9.312;2024-01-30T07:49:35;17.77;;;9.93;;
18172;SDS011;9211;48.818;9.312;2024-01-30T07:52:05;17.42;;;9.50;;
18172;SDS011;9211;48.818;9.312;2024-01-30T07:54:32;17.63;;;9.57;;
18172;SDS011;9211;48.818;9.312;2024-01-30T07:57:00;19.60;;;9.85;;
18172;SDS011;9211;48.818;9.312;2024-01-30T07:59:27;19.35;;;9.73;;
18172;SDS011;9211;48.818;9.312;2024-01-30T08:01:54;15.80;;;9.50;;
18172;SDS011;9211;48.818;9.312;2024-01-30T08:04:21;20.67;;;10.37;;
18172;SDS011;9211;48.818;9.312;2024-01-30T08:06:49;16.70;;;9.93;;
18172;SDS011;9211;48.818;9.312;2024-01-30T08:09:16;18.05;;;9.80;;
18172;SDS011;9211;48.818;9.312;2024-01-30T08:11:43;16.40;;;9.45;;
18172;SDS011;9211;48.818;9.312;2024-01-30T08:14:10;20.35;;;9.70;;
18172;SDS011;9211;48.818;9.312;2024-01-30T08:16:38;17.90;;;9.88;;
18172;SDS011;9211;48.818;9.312;2024-01-30T08:19:05;17.83;;;9.80;;
18172;SDS011;9211;48.818;9.312;2024-01-30T08:21:32;18.77;;;9.95;;
18172;SDS011;9211;48.818;9.312;2024-01-30T08:24:03;20.05;;;10.48;;
18172;SDS011;9211;48.818;9.312;2024-01-30T08:28:57;19.35;;;10.23;;
18172;SDS011;9211;48.818;9.312;2024-01-30T08:31:24;21.70;;;10.30;;
18172;SDS011;9211;48.818;9.312;2024-01-30T08:33:51;17.13;;;10.00;;
18172;SDS011;9211;48.818;9.312;2024-01-30T08:36:18;18.87;;;9.80;;
18172;SDS011;9211;48.818;9.312;2024-01-30T08:38:46;18.08;;;9.80;;
18172;SDS011;9211;48.818;9.312;2024-01-30T08:41:14;16.30;;;10.00;;
18172;SDS011;9211;48.818;9.312;2024-01-30T08:43:41;17.60;;;9.30;;
18172;SDS011;9211;48.818;9.312;2024-01-30T08:46:09;16.40;;;9.45;;
18172;SDS011;9211;48.818;9.312;2024-01-30T08:48:36;16.23;;;9.57;;
18172;SDS011;9211;48.818;9.312;2024-01-30T08:51:04;20.52;;;10.15;;
18172;SDS011;9211;48.818;9.312;2024-01-30T08:53:33;17.02;;;9.65;;
18172;SDS011;9211;48.818;9.312;2024-01-30T08:56:01;20.40;;;9.85;;
18172;SDS011;9211;48.818;9.312;2024-01-30T08:58:29;18.05;;;9.38;;
18172;SDS011;9211;48.818;9.312;2024-01-30T09:00:56;18.65;;;9.23;;
18172;SDS011;9211;48.818;9.312;2024-01-30T09:03:23;16.50;;;9.63;;
18172;SDS011;9211;48.818;9.312;2024-01-30T09:05:50;15.77;;;9.57;;
18172;SDS011;9211;48.818;9.312;2024-01-30T09:08:16;19.83;;;9.93;;
18172;SDS011;9211;48.818;9.312;2024-01-30T09:10:43;16.83;;;9.50;;
18172;SDS011;9211;48.818;9.312;2024-01-30T09:13:10;19.08;;;10.05;;
18172;SDS011;9211;48.818;9.312;2024-01-30T09:15:39;16.83;;;9.60;;
18172;SDS011;9211;48.818;9.312;2024-01-30T09:18:06;17.63;;;9.65;;
18172;SDS011;9211;48.818;9.312;2024-01-30T09:20:33;16.52;;;9.10;;
18172;SDS011;9211;48.818;9.312;2024-01-30T09:23:00;16.40;;;9.10;;
18172;SDS011;9211;48.818;9.312;2024-01-30T09:25:27;19.75;;;9.38;;
18172;SDS011;9211;48.818;9.312;2024-01-30T09:27:54;16.20;;;9.30;;
18172;SDS011;9211;48.818;9.312;2024-01-30T09:30:21;17.35;;;9.40;;
18172;SDS011;9211;48.818;9.312;2024-01-30T09:32:49;19.67;;;9.55;;
18172;SDS011;9211;48.818;9.312;2024-01-30T09:35:16;17.23;;;9.27;;
18172;SDS011;9211;48.818;9.312;2024-01-30T09:37:43;19.08;;;9.45;;
18172;SDS011;9211;48.818;9.312;2024-01-30T09:40:10;18.35;;;9.02;;
18172;SDS011;9211;48.818;9.312;2024-01-30T09:42:37;16.77;;;9.30;;
18172;SDS011;9211;48.818;9.312;2024-01-30T09:45:05;18.57;;;9.30;;
18172;SDS011;9211;48.818;9.312;2024-01-30T09:47:32;18.98;;;9.50;;
18172;SDS011;9211;48.818;9.312;2024-01-30T09:50:05;21.27;;;9.30;;
18172;SDS011;9211;48.818;9.312;2024-01-30T09:52:33;16.65;;;9.00;;
18172;SDS011;9211;48.818;9.312;2024-01-30T09:55:00;18.55;;;9.15;;
18172;SDS011;9211;48.818;9.312;2024-01-30T09:57:28;17.55;;;9.02;;
18172;SDS011;9211;48.818;9.312;2024-01-30T09:59:55;16.75;;;8.88;;
18172;SDS011;9211;48.818;9.312;2024-01-30T10:02:22;16.00;;;8.95;;
18172;SDS011;9211;48.818;9.312;2024-01-30T10:04:49;16.13;;;8.77;;
18172;SDS011;9211;48.818;9.312;2024-01-30T10:07:19;16.73;;;8.95;;
18172;SDS011;9211;48.818;9.312;2024-01-30T10:09:46;17.42;;;8.90;;
18172;SDS011;9211;48.818;9.312;2024-01-30T10:12:14;15.68;;;8.80;;
18172;SDS011;9211;48.818;9.312;2024-01-30T10:14:41;15.88;;;8.80;;
18172;SDS011;9211;48.818;9.312;2024-01-30T10:17:09;16.33;;;8.50;;
18172;SDS011;9211;48.818;9.312;2024-01-30T10:19:37;15.40;;;8.77;;
18172;SDS011;9211;48.818;9.312;2024-01-30T10:22:04;20.50;;;8.80;;
18172;SDS011;9211;48.818;9.312;2024-01-30T10:24:34;20.15;;;8.80;;
18172;SDS011;9211;48.818;9.312;2024-01-30T10:27:01;16.83;;;8.57;;
18172;SDS011;9211;48.818;9.312;2024-01-30T10:29:28;20.67;;;8.60;;
18172;SDS011;9211;48.818;9.312;2024-01-30T10:31:58;20.07;;;8.37;;
18172;SDS011;9211;48.818;9.312;2024-01-30T10:34:25;16.83;;;8.25;;
18172;SDS011;9211;48.818;9.312;2024-01-30T10:36:55;18.90;;;8.60;;
18172;SDS011;9211;48.818;9.312;2024-01-30T10:39:27;22.38;;;8.82;;
18172;SDS011;9211;48.818;9.312;2024-01-30T10:41:59;17.90;;;8.50;;
18172;SDS011;9211;48.818;9.312;2024-01-30T10:44:30;18.02;;;8.50;;
18172;SDS011;9211;48.818;9.312;2024-01-30T10:47:05;17.77;;;8.68;;
18172;SDS011;9211;48.818;9.312;2024-01-30T10:49:37;19.30;;;9.13;;
18172;SDS011;9211;48.818;9.312;2024-01-30T10:52:07;22.35;;;8.80;;
18172;SDS011;9211;48.818;9.312;2024-01-30T10:54:35;16.60;;;8.45;;
18172;SDS011;9211;48.818;9.312;2024-01-30T10:57:05;20.43;;;8.80;;
18172;SDS011;9211;48.818;9.312;2024-01-30T10:59:32;19.50;;;8.60;;
18172;SDS011;9211;48.818;9.312;2024-01-30T11:01:59;17.70;;;8.52;;
18172;SDS011;9211;48.818;9.312;2024-01-30T11:04:27;23.63;;;8.90;;
18172;SDS011;9211;48.818;9.312;2024-01-30T11:07:01;21.00;;;8.32;;
18172;SDS011;9211;48.818;9.312;2024-01-30T11:09:29;17.50;;;8.20;;
18172;SDS011;9211;48.818;9.312;2024-01-30T11:11:56;17.92;;;8.95;;
18172;SDS011;9211;48.818;9.312;2024-01-30T11:14:26;20.83;;;9.02;;
18172;SDS011;9211;48.818;9.312;2024-01-30T11:16:56;19.30;;;8.77;;
18172;SDS011;9211;48.818;9.312;2024-01-30T11:19:24;20.55;;;9.07;;
18172;SDS011;9211;48.818;9.312;2024-01-30T11:21:52;20.40;;;8.75;;
18172;SDS011;9211;48.818;9.312;2024-01-30T11:24:21;19.73;;;8.80;;
18172;SDS011;9211;48.818;9.312;2024-01-30T11:26:48;17.50;;;8.75;;
18172;SDS011;9211;48.818;9.312;2024-01-30T11:29:16;14.95;;;8.70;;
18172;SDS011;9211;48.818;9.312;2024-01-30T11:34:32;18.23;;;9.18;;
18172;SDS011;9211;48.818;9.312;2024-01-30T11:37:01;18.15;;;8.70;;
18172;SDS011;9211;48.818;9.312;2024-01-30T11:39:32;18.85;;;8.55;;
18172;SDS011;9211;48.818;9.312;2024-01-30T11:42:00;16.90;;;8.38;;
18172;SDS011;9211;48.818;9.312;2024-01-30T11:44:30;17.20;;;8.52;;
18172;SDS011;9211;48.818;9.312;2024-01-30T11:46:56;15.13;;;8.02;;
18172;SDS011;9211;48.818;9.312;2024-01-30T11:49:25;16.52;;;7.95;;
18172;SDS011;9211;48.818;9.312;2024-01-30T11:51:52;15.63;;;7.93;;
18172;SDS011;9211;48.818;9.312;2024-01-30T11:54:19;15.57;;;7.63;;
18172;SDS011;9211;48.818;9.312;2024-01-30T11:56:46;16.27;;;8.07;;
18172;SDS011;9211;48.818;9.312;2024-01-30T11:59:13;14.93;;;7.90;;
18172;SDS011;9211;48.818;9.312;2024-01-30T12:01:40;15.27;;;7.53;;
18172;SDS011;9211;48.818;9.312;2024-01-30T12:04:07;18.98;;;7.63;;
18172;SDS011;9211;48.818;9.312;2024-01-30T12:06:36;18.33;;;7.40;;
18172;SDS011;9211;48.818;9.312;2024-01-30T12:09:03;14.27;;;7.60;;
18172;SDS011;9211;48.818;9.312;2024-01-30T12:11:31;14.10;;;7.25;;
18172;SDS011;9211;48.818;9.312;2024-01-30T12:13:58;16.83;;;7.10;;
18172;SDS011;9211;48.818;9.312;2024-01-30T12:16:25;15.50;;;7.17;;
18172;SDS011;9211;48.818;9.312;2024-01-30T12:18:59;13.65;;;6.85;;
18172;SDS011;9211;48.818;9.312;2024-01-30T12:21:27;15.30;;;7.47;;
18172;SDS011;9211;48.818;9.312;2024-01-30T12:23:56;16.77;;;8.07;;
18172;SDS011;9211;48.818;9.312;2024-01-30T12:26:23;17.33;;;7.32;;
18172;SDS011;9211;48.818;9.312;2024-01-30T12:28:54;15.63;;;7.70;;
18172;SDS011;9211;48.818;9.312;2024-01-30T12:31:26;12.80;;;6.93;;
18172;SDS011;9211;48.818;9.312;2024-01-30T12:33:53;16.40;;;7.25;;
18172;SDS011;9211;48.818;9.312;2024-01-30T12:36:20;15.90;;;7.28;;
18172;SDS011;9211;48.818;9.312;2024-01-30T12:38:48;14.80;;;7.15;;
18172;SDS011;9211;48.818;9.312;2024-01-30T12:41:16;15.90;;;7.20;;
18172;SDS011;9211;48.818;9.312;2024-01-30T12:43:43;12.35;;;6.60;;
18172;SDS011;9211;48.818;9.312;2024-01-30T12:46:10;13.98;;;6.75;;
18172;SDS011;9211;48.818;9.312;2024-01-30T12:48:37;11.90;;;6.90;;
18172;SDS011;9211;48.818;9.312;2024-01-30T12:51:04;13.18;;;6.70;;
18172;SDS011;9211;48.818;9.312;2024-01-30T12:53:31;16.00;;;7.13;;
18172;SDS011;9211;48.818;9.312;2024-01-30T12:55:58;13.93;;;6.70;;
18172;SDS011;9211;48.818;9.312;2024-01-30T12:58:26;15.35;;;6.97;;
18172;SDS011;9211;48.818;9.312;2024-01-30T13:00:53;13.43;;;7.07;;
18172;SDS011;9211;48.818;9.312;2024-01-30T13:03:20;14.65;;;6.93;;
18172;SDS011;9211;48.818;9.312;2024-01-30T13:05:48;16.95;;;7.38;;
18172;SDS011;9211;48.818;9.312;2024-01-30T13:08:15;14.75;;;7.10;;
18172;SDS011;9211;48.818;9.312;2024-01-30T13:10:42;18.02;;;7.82;;
18172;SDS011;9211;48.818;9.312;2024-01-30T13:13:09;14.60;;;7.50;;
18172;SDS011;9211;48.818;9.312;2024-01-30T13:15:37;13.38;;;6.85;;
18172;SDS011;9211;48.818;9.312;2024-01-30T13:18:04;11.32;;;6.60;;
18172;SDS011;9211;48.818;9.312;2024-01-30T13:20:32;13.27;;;6.97;;
18172;SDS011;9211;48.818;9.312;2024-01-30T13:22:59;16.20;;;7.03;;
18172;SDS011;9211;48.818;9.312;2024-01-30T13:25:26;13.83;;;6.90;;
18172;SDS011;9211;48.818;9.312;2024-01-30T13:27:54;12.43;;;7.47;;
18172;SDS011;9211;48.818;9.312;2024-01-30T13:30:21;14.10;;;7.40;;
18172;SDS011;9211;48.818;9.312;2024-01-30T13:32:49;14.95;;;7.93;;
18172;SDS011;9211;48.818;9.312;2024-01-30T13:35:16;17.20;;;9.20;;
18172;SDS011;9211;48.818;9.312;2024-01-30T13:37:43;17.58;;;9.48;;
18172;SDS011;9211;48.818;9.312;2024-01-30T13:40:10;16.48;;;9.32;;
18172;SDS011;9211;48.818;9.312;2024-01-30T13:42:38;16.90;;;9.40;;
18172;SDS011;9211;48.818;9.312;2024-01-30T13:45:05;21.73;;;10.02;;
18172;SDS011;9211;48.818;9.312;2024-01-30T13:47:34;22.52;;;10.00;;
18172;SDS011;9211;48.818;9.312;2024-01-30T13:50:03;14.00;;;8.95;;
18172;SDS011;9211;48.818;9.312;2024-01-30T13:52:30;16.95;;;9.40;;
18172;SDS011;9211;48.818;9.312;2024-01-30T13:54:57;16.90;;;9.07;;
18172;SDS011;9211;48.818;9.312;2024-01-30T13:57:24;17.17;;;8.93;;
18172;SDS011;9211;48.818;9.312;2024-01-30T13:59:51;14.98;;;8.48;;
18172;SDS011;9211;48.818;9.312;2024-01-30T14:02:18;17.05;;;8.93;;
18172;SDS011;9211;48.818;9.312;2024-01-30T14:04:45;16.05;;;9.00;;
18172;SDS011;9211;48.818;9.312;2024-01-30T14:07:14;15.38;;;8.95;;
18172;SDS011;9211;48.818;9.312;2024-01-30T14:09:40;17.27;;;8.73;;
18172;SDS011;9211;48.818;9.312;2024-01-30T14:12:07;16.80;;;8.63;;
18172;SDS011;9211;48.818;9.312;2024-01-30T14:14:34;14.52;;;8.35;;
18172;SDS011;9211;48.818;9.312;2024-01-30T14:17:02;17.77;;;8.98;;
18172;SDS011;9211;48.818;9.312;2024-01-30T14:19:32;16.20;;;8.43;;
18172;SDS011;9211;48.818;9.312;2024-01-30T14:21:59;19.02;;;8.80;;
18172;SDS011;9211;48.818;9.312;2024-01-30T14:24:27;16.42;;;8.38;;
18172;SDS011;9211;48.818;9.312;2024-01-30T14:26:54;20.08;;;8.75;;
18172;SDS011;9211;48.818;9.312;2024-01-30T14:29:21;19.10;;;8.45;;
18172;SDS011;9211;48.818;9.312;2024-01-30T14:31:48;15.27;;;7.85;;
18172;SDS011;9211;48.818;9.312;2024-01-30T14:34:15;18.70;;;8.45;;
18172;SDS011;9211;48.818;9.312;2024-01-30T14:36:42;14.10;;;8.10;;
18172;SDS011;9211;48.818;9.312;2024-01-30T14:39:09;14.20;;;7.82;;
18172;SDS011;9211;48.818;9.312;2024-01-30T14:41:37;13.57;;;7.13;;
18172;SDS011;9211;48.818;9.312;2024-01-30T14:44:04;15.90;;;7.72;;
18172;SDS011;9211;48.818;9.312;2024-01-30T14:46:33;16.63;;;7.40;;
18172;SDS011;9211;48.818;9.312;2024-01-30T14:49:00;17.13;;;8.10;;